Terminal Aerodrome Forecast
Issued by NWS

Home | Current Version | Previous Version | Text Only | Print | Product List | Glossary On
Versions: 1 2 3 4 5 6 7 8 9 10 11 12 13 14 15 16 17 18 19 20 21 22 23 24 25
000
FTUS43 KICT 210529
TAFSLN
TAF
KSLN 210529Z 2106/2206 18010KT P6SM SCT020 BKN200
      TEMPO 2106/2109 BKN012
     FM210900 17008KT 4SM BR OVC012
     FM211200 19011KT 4SM BR OVC008
     FM211600 17015G20KT 6SM BR BKN009=

USA.gov is the U.S. government's official web portal to all federal, state and local government web resources and services.